Babb, Montana
Current Conditions -  °F | °C
As of 12:56 PM on Sunday 23 Nov 2014 (Local Time) from KCTB Reporting Station
Clear Clear  
Wind Chill:   Ceiling: Unl
Heat Index:   Visibility: 10mi
Dew Point: -8°   Wind: 29mph
Humidity: 38%   Direction: 270°W
Pressure: 29.82"   Gusts: 39mph
Location:  48.85°N, 113.44°W
Report Text: KCTB 231956Z AUTO 27025G34KT 10SM CLR 06/M08 A2982 RMK AO2 PK WND 26038/1940 SLP118 T00561078
Loading
Personal Weather Stations






























Interactive Weather Map New forecast layout! Learn more

10-Day Weather Forecast

Advertisements
Track Severe Weather on mobile